Time;durP1;ratioP1;P1;durP2;ratioP2;P2;SDS_P1;SDS_P2;PMS_P1;PMS_P2;Temp;Humidity;BMP_temperature;BMP_pressure;BME280_temperature;BME280_humidity;BME280_pressure;Samples;Min_cycle;Max_cycle;Signal;HPM_P1;HPM_P2
2022/01/07 00:01:35;;;;;;;37.65;12.20;;;;;;;;;;5130522;27;20481;-75
2022/01/07 00:04:02;;;;;;;24.42;8.85;;;;;;;;;;5131096;27;20020;-75
2022/01/07 00:06:28;;;;;;;18.05;7.80;;;;;;;;;;5130498;27;20020;-75
2022/01/07 00:08:54;;;;;;;15.20;6.70;;;;;;;;;;5133541;27;20038;-75
2022/01/07 00:11:21;;;;;;;15.57;7.28;;;;;;;;;;5132244;27;20026;-75
2022/01/07 00:13:48;;;;;;;20.48;7.35;;;;;;;;;;5130821;27;20019;-74
2022/01/07 00:16:16;;;;;;;16.13;6.57;;;;;;;;;;5130296;27;20035;-74
2022/01/07 00:18:44;;;;;;;17.08;6.07;;;;;;;;;;5130789;27;20025;-74
2022/01/07 00:21:11;;;;;;;16.77;5.75;;;;;;;;;;5115234;27;20362;-75
2022/01/07 00:23:37;;;;;;;14.93;5.50;;;;;;;;;;5134634;27;20031;-75
2022/01/07 00:26:04;;;;;;;13.30;5.57;;;;;;;;;;5130289;27;20492;-75
2022/01/07 00:28:30;;;;;;;15.23;5.85;;;;;;;;;;5130235;27;20025;-75
2022/01/07 00:30:57;;;;;;;16.45;6.43;;;;;;;;;;5131458;27;20018;-75
2022/01/07 00:33:23;;;;;;;16.00;6.20;;;;;;;;;;5130612;27;20012;-75
2022/01/07 00:35:50;;;;;;;16.85;5.68;;;;;;;;;;5132741;27;20038;-75
2022/01/07 00:38:17;;;;;;;14.55;5.75;;;;;;;;;;5131664;27;20026;-74
2022/01/07 00:40:43;;;;;;;18.35;6.38;;;;;;;;;;5130580;27;20023;-75
2022/01/07 00:43:09;;;;;;;30.00;11.25;;;;;;;;;;5112324;27;20020;-75
2022/01/07 00:45:36;;;;;;;28.67;10.25;;;;;;;;;;5129951;27;20026;-75
2022/01/07 00:48:02;;;;;;;29.17;9.68;;;;;;;;;;5131264;27;20031;-75
2022/01/07 00:50:30;;;;;;;15.63;7.53;;;;;;;;;;5132679;27;20489;-74
2022/01/07 00:52:56;;;;;;;35.05;11.13;;;;;;;;;;5129735;27;20036;-75
2022/01/07 00:55:23;;;;;;;23.70;7.85;;;;;;;;;;5129868;27;20192;-75
2022/01/07 00:57:50;;;;;;;17.52;6.25;;;;;;;;;;5129829;27;20385;-75
2022/01/07 01:00:17;;;;;;;16.48;5.78;;;;;;;;;;5111744;27;20027;-75
2022/01/07 01:02:44;;;;;;;18.27;6.65;;;;;;;;;;5132768;27;20031;-75
2022/01/07 01:05:12;;;;;;;13.23;6.20;;;;;;;;;;5130615;27;20027;-75
2022/01/07 01:07:39;;;;;;;15.48;6.00;;;;;;;;;;5129363;27;20060;-75
2022/01/07 01:10:07;;;;;;;11.98;5.32;;;;;;;;;;5131055;27;20033;-75
2022/01/07 01:12:37;;;;;;;19.48;8.00;;;;;;;;;;5130026;27;20007;-76
2022/01/07 01:15:05;;;;;;;13.70;6.80;;;;;;;;;;5131086;27;20071;-75
2022/01/07 01:17:31;;;;;;;16.50;7.13;;;;;;;;;;5131762;27;20378;-75
2022/01/07 01:19:57;;;;;;;13.85;5.97;;;;;;;;;;5129570;27;20071;-76
2022/01/07 01:22:24;;;;;;;19.25;6.95;;;;;;;;;;5129518;27;20015;-75
2022/01/07 01:24:50;;;;;;;14.80;6.53;;;;;;;;;;5129409;27;20023;-75
2022/01/07 01:27:16;;;;;;;14.75;6.57;;;;;;;;;;5129353;27;20038;-75
2022/01/07 01:29:43;;;;;;;14.73;7.15;;;;;;;;;;5132538;27;20033;-75
2022/01/07 01:32:10;;;;;;;18.38;6.95;;;;;;;;;;5129995;27;20037;-75
2022/01/07 01:34:36;;;;;;;18.80;7.40;;;;;;;;;;5129279;27;20035;-75
2022/01/07 01:37:03;;;;;;;17.27;6.63;;;;;;;;;;5129140;27;20489;-75
2022/01/07 01:39:29;;;;;;;14.13;6.32;;;;;;;;;;5129431;27;20039;-75
2022/01/07 01:41:57;;;;;;;14.35;7.10;;;;;;;;;;5131370;27;20052;-75
2022/01/07 01:44:24;;;;;;;16.65;6.65;;;;;;;;;;5112827;28;20397;-75
2022/01/07 01:46:50;;;;;;;17.77;5.85;;;;;;;;;;5128687;27;20039;-75
2022/01/07 01:49:17;;;;;;;15.93;6.57;;;;;;;;;;5130430;27;20019;-75
2022/01/07 01:51:43;;;;;;;17.42;7.30;;;;;;;;;;5129340;27;20019;-75
2022/01/07 01:54:09;;;;;;;17.48;7.25;;;;;;;;;;5129174;27;20019;-74
2022/01/07 01:56:36;;;;;;;16.90;7.47;;;;;;;;;;5131918;27;20507;-75
2022/01/07 01:59:03;;;;;;;12.10;6.20;;;;;;;;;;5128852;27;20023;-74
2022/01/07 02:01:29;;;;;;;17.10;6.45;;;;;;;;;;5128898;28;20027;-75
2022/01/07 02:03:56;;;;;;;16.73;7.47;;;;;;;;;;5128675;28;20520;-75
2022/01/07 02:06:22;;;;;;;21.45;6.65;;;;;;;;;;5129064;28;20032;-75
2022/01/07 02:08:50;;;;;;;18.83;7.07;;;;;;;;;;5131393;28;20079;-75
2022/01/07 02:11:16;;;;;;;20.73;8.00;;;;;;;;;;5129685;28;20027;-75
2022/01/07 02:13:44;;;;;;;13.60;7.32;;;;;;;;;;5128556;28;20030;-75
2022/01/07 02:16:10;;;;;;;16.92;6.95;;;;;;;;;;5113194;28;20043;-75
2022/01/07 02:18:37;;;;;;;12.70;5.80;;;;;;;;;;5128989;28;20040;-75
2022/01/07 02:21:03;;;;;;;19.13;5.78;;;;;;;;;;5129904;28;20524;-75
2022/01/07 02:23:32;;;;;;;12.85;5.80;;;;;;;;;;5131254;28;20034;-74
2022/01/07 02:25:59;;;;;;;12.77;5.28;;;;;;;;;;5127847;28;20023;-75
2022/01/07 02:28:26;;;;;;;12.95;5.03;;;;;;;;;;5130258;27;20481;-75
2022/01/07 02:30:52;;;;;;;9.80;4.63;;;;;;;;;;5132444;27;20023;-75
2022/01/07 02:33:19;;;;;;;12.20;4.40;;;;;;;;;;5132788;27;20509;-75
2022/01/07 02:35:46;;;;;;;14.23;4.38;;;;;;;;;;5135202;27;20037;-75
2022/01/07 02:38:15;;;;;;;14.18;4.72;;;;;;;;;;5133639;27;20031;-75
2022/01/07 02:40:42;;;;;;;15.65;4.60;;;;;;;;;;5132291;27;20027;-75
2022/01/07 02:43:08;;;;;;;11.52;4.80;;;;;;;;;;5132445;27;20029;-75
2022/01/07 02:45:35;;;;;;;11.07;4.38;;;;;;;;;;5132483;27;20016;-75
2022/01/07 02:48:03;;;;;;;10.73;5.00;;;;;;;;;;5133532;27;20035;-75
2022/01/07 02:50:37;;;;;;;12.57;4.82;;;;;;;;;;5135308;27;20027;-75
2022/01/07 02:53:04;;;;;;;8.07;4.32;;;;;;;;;;5132499;27;20505;-75
2022/01/07 02:55:30;;;;;;;8.93;4.15;;;;;;;;;;5131465;27;20046;-75
2022/01/07 02:57:57;;;;;;;11.50;4.15;;;;;;;;;;5132427;27;20025;-75
2022/01/07 03:00:24;;;;;;;11.98;4.38;;;;;;;;;;5115595;27;20019;-75
2022/01/07 03:02:51;;;;;;;11.23;4.45;;;;;;;;;;5134538;27;20023;-75
2022/01/07 03:05:18;;;;;;;10.88;4.65;;;;;;;;;;5114980;27;20043;-75
2022/01/07 03:07:48;;;;;;;12.63;5.15;;;;;;;;;;5133328;27;20022;-75
2022/01/07 03:10:16;;;;;;;10.85;5.20;;;;;;;;;;5131561;27;20023;-74
2022/01/07 03:12:43;;;;;;;14.07;6.05;;;;;;;;;;5132074;27;20020;-74
2022/01/07 03:15:11;;;;;;;14.55;5.10;;;;;;;;;;5116143;27;20023;-75
2022/01/07 03:17:40;;;;;;;10.68;4.80;;;;;;;;;;5131505;27;20507;-74
2022/01/07 03:20:07;;;;;;;11.98;5.40;;;;;;;;;;5134004;27;20034;-74
2022/01/07 03:22:34;;;;;;;14.07;6.00;;;;;;;;;;5131747;27;20509;-75
2022/01/07 03:25:00;;;;;;;12.05;5.60;;;;;;;;;;5131775;27;20027;-75
2022/01/07 03:27:26;;;;;;;18.23;6.55;;;;;;;;;;5131721;27;20020;-74
2022/01/07 03:29:53;;;;;;;12.95;5.55;;;;;;;;;;5134123;27;20497;-75
2022/01/07 03:32:19;;;;;;;15.15;6.03;;;;;;;;;;5132889;27;20031;-75
2022/01/07 03:34:45;;;;;;;18.30;5.45;;;;;;;;;;5131412;27;20034;-75
2022/01/07 03:37:12;;;;;;;14.65;5.57;;;;;;;;;;5116200;27;20523;-75
2022/01/07 03:39:38;;;;;;;11.57;5.45;;;;;;;;;;5131696;27;20023;-75
2022/01/07 03:42:04;;;;;;;13.98;5.82;;;;;;;;;;5131015;27;20424;-75
2022/01/07 03:44:31;;;;;;;12.00;5.65;;;;;;;;;;5134340;27;20015;-75
2022/01/07 03:46:57;;;;;;;14.38;5.57;;;;;;;;;;5132187;27;20043;-75
2022/01/07 03:49:24;;;;;;;19.30;5.55;;;;;;;;;;5113064;27;20093;-75
2022/01/07 03:51:50;;;;;;;13.27;5.40;;;;;;;;;;5131156;27;20017;-75
2022/01/07 03:54:17;;;;;;;16.58;6.97;;;;;;;;;;5131069;27;20023;-75
2022/01/07 03:56:43;;;;;;;16.33;6.45;;;;;;;;;;5115861;27;20060;-75
2022/01/07 03:59:10;;;;;;;16.42;6.68;;;;;;;;;;5131753;27;20035;-74
2022/01/07 04:01:36;;;;;;;18.52;6.60;;;;;;;;;;5131504;27;20038;-75
2022/01/07 04:04:02;;;;;;;11.73;6.20;;;;;;;;;;5130814;27;20434;-75
2022/01/07 04:06:29;;;;;;;22.65;5.82;;;;;;;;;;5131232;27;20012;-75
2022/01/07 04:08:55;;;;;;;20.55;7.32;;;;;;;;;;5133079;27;20075;-75
2022/01/07 04:11:21;;;;;;;14.20;6.35;;;;;;;;;;5132685;27;20030;-75
2022/01/07 04:13:47;;;;;;;13.30;5.50;;;;;;;;;;5130937;27;20023;-75
2022/01/07 04:16:14;;;;;;;13.68;6.35;;;;;;;;;;5130604;27;20045;-75
2022/01/07 04:18:40;;;;;;;11.68;5.60;;;;;;;;;;5130957;27;20019;-74
2022/01/07 04:21:06;;;;;;;15.73;5.60;;;;;;;;;;5131218;27;22514;-74
2022/01/07 04:23:33;;;;;;;10.98;5.95;;;;;;;;;;5133599;27;20022;-75
2022/01/07 04:26:00;;;;;;;14.43;5.40;;;;;;;;;;5131703;27;20492;-75
2022/01/07 04:28:26;;;;;;;13.98;5.85;;;;;;;;;;5130295;27;20035;-75
2022/01/07 04:30:52;;;;;;;17.88;6.22;;;;;;;;;;5130359;27;20071;-75
2022/01/07 04:33:26;;;;;;;19.88;7.03;;;;;;;;;;5130427;27;20046;-75
2022/01/07 04:35:52;;;;;;;20.50;7.75;;;;;;;;;;5132069;27;20446;-75
2022/01/07 04:38:19;;;;;;;19.55;8.30;;;;;;;;;;5131512;27;20394;-75
2022/01/07 04:40:45;;;;;;;24.02;9.32;;;;;;;;;;5130081;27;20223;-75
2022/01/07 04:43:13;;;;;;;22.50;8.68;;;;;;;;;;5114433;27;20458;-75
2022/01/07 04:45:39;;;;;;;17.58;8.70;;;;;;;;;;5130522;27;20023;-75
2022/01/07 04:48:06;;;;;;;20.95;9.57;;;;;;;;;;5130481;27;20039;-75
2022/01/07 04:50:33;;;;;;;23.33;9.07;;;;;;;;;;5114739;27;20091;-74
2022/01/07 04:53:00;;;;;;;25.75;9.63;;;;;;;;;;5129552;27;20504;-74
2022/01/07 04:55:29;;;;;;;18.38;8.90;;;;;;;;;;5129954;27;20034;-75
2022/01/07 04:57:56;;;;;;;18.60;9.43;;;;;;;;;;5129587;27;20224;-75
2022/01/07 05:00:23;;;;;;;23.95;8.70;;;;;;;;;;5129836;27;20028;-75
2022/01/07 05:02:49;;;;;;;18.15;9.52;;;;;;;;;;5131954;27;20512;-74
2022/01/07 05:05:16;;;;;;;21.63;9.23;;;;;;;;;;5132312;27;20019;-75
2022/01/07 05:07:42;;;;;;;20.50;9.38;;;;;;;;;;5129283;27;20497;-75
2022/01/07 05:10:10;;;;;;;20.10;9.30;;;;;;;;;;5129460;27;20066;-75
2022/01/07 05:12:37;;;;;;;29.20;11.85;;;;;;;;;;5129593;27;20015;-75
2022/01/07 05:15:07;;;;;;;25.70;12.15;;;;;;;;;;5130620;27;20519;-75
2022/01/07 05:17:34;;;;;;;36.43;14.73;;;;;;;;;;5132902;27;20397;-75
2022/01/07 05:20:00;;;;;;;26.55;11.85;;;;;;;;;;5129007;27;20026;-74
2022/01/07 05:22:28;;;;;;;24.83;10.27;;;;;;;;;;5129724;27;20026;-75
2022/01/07 05:24:54;;;;;;;29.45;10.32;;;;;;;;;;5129338;27;20011;-75
2022/01/07 05:27:20;;;;;;;28.45;11.77;;;;;;;;;;5129543;27;20489;-75
2022/01/07 05:29:47;;;;;;;32.08;11.95;;;;;;;;;;5132038;27;20038;-74
2022/01/07 05:32:13;;;;;;;31.45;12.60;;;;;;;;;;5130850;27;20019;-75
2022/01/07 05:34:40;;;;;;;28.67;10.13;;;;;;;;;;5128960;27;20031;-75
2022/01/07 05:37:09;;;;;;;21.98;9.82;;;;;;;;;;5129107;27;20035;-75
2022/01/07 05:39:35;;;;;;;19.10;9.30;;;;;;;;;;5129372;27;20794;-74
2022/01/07 05:42:02;;;;;;;20.25;8.60;;;;;;;;;;5130402;27;20027;-75
2022/01/07 05:44:28;;;;;;;21.33;9.07;;;;;;;;;;5132744;27;20083;-75
2022/01/07 05:46:55;;;;;;;24.27;10.38;;;;;;;;;;5106281;27;20069;-74
2022/01/07 05:49:21;;;;;;;22.95;10.10;;;;;;;;;;5128777;27;20495;-75
2022/01/07 05:51:48;;;;;;;18.13;9.07;;;;;;;;;;5129253;27;20019;-75
2022/01/07 05:54:14;;;;;;;21.38;8.20;;;;;;;;;;5129263;27;20015;-75
2022/01/07 05:56:40;;;;;;;20.15;8.43;;;;;;;;;;5132370;27;20037;-75
2022/01/07 05:59:07;;;;;;;15.50;7.82;;;;;;;;;;5130860;27;20030;-74
2022/01/07 06:01:33;;;;;;;18.98;9.10;;;;;;;;;;5128755;28;20015;-75
2022/01/07 06:04:00;;;;;;;20.13;8.82;;;;;;;;;;5130201;27;20012;-75
2022/01/07 06:06:27;;;;;;;18.63;8.98;;;;;;;;;;5136327;27;20016;-75
2022/01/07 06:08:53;;;;;;;15.60;8.18;;;;;;;;;;5138045;27;20027;-74
2022/01/07 06:11:20;;;;;;;23.48;9.88;;;;;;;;;;5137071;27;20015;-75
2022/01/07 06:13:46;;;;;;;24.60;9.80;;;;;;;;;;5135806;27;20030;-76
2022/01/07 06:16:12;;;;;;;23.95;9.43;;;;;;;;;;5117291;27;20031;-74
2022/01/07 06:18:43;;;;;;;24.20;9.43;;;;;;;;;;5135174;27;20060;-74
2022/01/07 06:21:09;;;;;;;19.73;8.82;;;;;;;;;;5120699;27;20105;-75
2022/01/07 06:23:36;;;;;;;18.10;8.68;;;;;;;;;;5139279;27;20037;-75
2022/01/07 06:26:02;;;;;;;21.02;8.88;;;;;;;;;;5135268;27;20022;-75
2022/01/07 06:28:28;;;;;;;32.97;12.88;;;;;;;;;;5135491;27;20057;-75
2022/01/07 06:30:55;;;;;;;33.88;12.35;;;;;;;;;;5135215;27;20023;-76
2022/01/07 06:33:21;;;;;;;25.02;11.40;;;;;;;;;;5135299;27;20012;-75
2022/01/07 06:35:47;;;;;;;29.10;10.07;;;;;;;;;;5137888;27;20383;-75
2022/01/07 06:38:14;;;;;;;19.25;10.00;;;;;;;;;;5118164;27;20023;-75
2022/01/07 06:40:40;;;;;;;19.20;7.68;;;;;;;;;;5135598;27;20035;-74
2022/01/07 06:43:06;;;;;;;14.68;7.03;;;;;;;;;;5135301;27;20053;-75
2022/01/07 06:45:33;;;;;;;17.98;6.32;;;;;;;;;;5135651;27;20022;-74
2022/01/07 06:47:59;;;;;;;17.83;7.13;;;;;;;;;;5136418;27;20046;-75
2022/01/07 06:50:26;;;;;;;15.55;6.95;;;;;;;;;;5137173;27;20039;-75
2022/01/07 06:52:52;;;;;;;19.80;6.90;;;;;;;;;;5135304;27;20022;-74
2022/01/07 06:55:18;;;;;;;16.83;7.63;;;;;;;;;;5134984;27;20039;-75
2022/01/07 06:57:45;;;;;;;23.27;8.20;;;;;;;;;;5116699;27;20046;-75
2022/01/07 07:00:11;;;;;;;19.45;8.10;;;;;;;;;;5136851;27;20397;-75
2022/01/07 07:02:37;;;;;;;22.38;9.88;;;;;;;;;;5134415;27;20025;-74
2022/01/07 07:05:04;;;;;;;27.83;11.43;;;;;;;;;;5135103;27;20038;-74
2022/01/07 07:07:30;;;;;;;23.52;9.70;;;;;;;;;;5131152;27;20485;-74
2022/01/07 07:09:57;;;;;;;21.73;9.95;;;;;;;;;;5134168;27;20034;-74
2022/01/07 07:12:23;;;;;;;17.73;8.23;;;;;;;;;;5134876;27;20022;-74
2022/01/07 07:14:49;;;;;;;16.02;6.75;;;;;;;;;;5105887;27;20041;-74
2022/01/07 07:17:16;;;;;;;18.58;7.70;;;;;;;;;;5127537;27;20486;-74
2022/01/07 07:19:42;;;;;;;23.38;8.15;;;;;;;;;;5131076;27;20015;-75
2022/01/07 07:22:08;;;;;;;16.77;8.40;;;;;;;;;;5131453;27;20057;-74
2022/01/07 07:24:35;;;;;;;17.83;8.00;;;;;;;;;;5131826;27;20388;-74
2022/01/07 07:27:01;;;;;;;21.17;9.05;;;;;;;;;;5133033;27;20050;-74
2022/01/07 07:29:27;;;;;;;24.42;12.00;;;;;;;;;;5133830;27;20020;-74
2022/01/07 07:31:56;;;;;;;26.55;11.93;;;;;;;;;;5131104;27;20023;-74
2022/01/07 07:36:59;;;;;;;29.77;11.60;;;;;;;;;;5124211;27;20505;-74
2022/01/07 07:39:25;;;;;;;27.83;11.88;;;;;;;;;;5131582;27;20019;-74
2022/01/07 07:41:51;;;;;;;24.13;9.48;;;;;;;;;;5131077;27;20042;-74
2022/01/07 07:44:17;;;;;;;17.45;8.38;;;;;;;;;;5131004;27;20029;-74
2022/01/07 07:46:44;;;;;;;16.90;9.15;;;;;;;;;;5130081;27;20031;-74
2022/01/07 07:49:11;;;;;;;22.33;10.38;;;;;;;;;;5129006;27;20019;-74
2022/01/07 07:51:37;;;;;;;23.38;10.27;;;;;;;;;;5129738;27;20504;-73
2022/01/07 07:54:05;;;;;;;22.23;10.50;;;;;;;;;;5132296;27;20023;-74
2022/01/07 07:56:31;;;;;;;26.95;10.70;;;;;;;;;;5141601;27;20041;-74
2022/01/07 07:58:58;;;;;;;22.83;10.73;;;;;;;;;;5140817;27;20026;-74
2022/01/07 08:01:24;;;;;;;20.23;10.13;;;;;;;;;;5139683;27;20027;-74
2022/01/07 08:03:51;;;;;;;22.30;9.50;;;;;;;;;;5140759;27;20011;-74
2022/01/07 08:06:17;;;;;;;22.08;9.57;;;;;;;;;;5139903;27;20026;-74
2022/01/07 08:08:45;;;;;;;25.98;11.15;;;;;;;;;;5133069;27;20481;-74
2022/01/07 08:11:12;;;;;;;25.05;10.50;;;;;;;;;;5122847;27;20023;-74
2022/01/07 08:16:24;;;;;;;23.73;10.13;;;;;;;;;;5126122;27;20034;-74
2022/01/07 08:18:54;;;;;;;18.88;8.63;;;;;;;;;;5129525;27;20033;-75
2022/01/07 08:21:21;;;;;;;14.38;7.70;;;;;;;;;;5118716;27;20038;-74
2022/01/07 08:23:49;;;;;;;16.23;6.45;;;;;;;;;;5132945;27;20030;-77
2022/01/07 08:26:17;;;;;;;11.95;5.35;;;;;;;;;;5129921;27;20435;-76
2022/01/07 08:28:47;;;;;;;11.00;5.53;;;;;;;;;;5125841;27;20019;-76
2022/01/07 08:36:27;;;;;;;15.00;6.22;;;;;;;;;;5115549;27;20047;-75
2022/01/07 08:38:54;;;;;;;16.33;5.65;;;;;;;;;;5131580;27;20075;-75
2022/01/07 08:41:22;;;;;;;15.02;5.65;;;;;;;;;;5130432;27;20031;-80
2022/01/07 08:43:49;;;;;;;14.98;6.75;;;;;;;;;;5127345;27;20055;-75
2022/01/07 08:46:15;;;;;;;14.68;6.40;;;;;;;;;;5137057;27;20474;-75
2022/01/07 08:48:42;;;;;;;11.70;6.15;;;;;;;;;;5139511;27;20049;-77
2022/01/07 08:51:09;;;;;;;10.30;5.80;;;;;;;;;;5139408;27;20071;-75
2022/01/07 08:53:36;;;;;;;13.60;7.00;;;;;;;;;;5143225;27;20023;-74
2022/01/07 08:56:02;;;;;;;14.30;6.45;;;;;;;;;;5138480;27;20489;-74
2022/01/07 08:58:29;;;;;;;11.63;6.35;;;;;;;;;;5138370;27;20021;-74
2022/01/07 09:00:58;;;;;;;21.52;7.82;;;;;;;;;;5139043;27;20022;-74
2022/01/07 09:03:24;;;;;;;14.57;7.78;;;;;;;;;;5137229;27;20023;-74
2022/01/07 09:05:51;;;;;;;19.27;8.20;;;;;;;;;;5130976;27;20197;-76
2022/01/07 09:08:17;;;;;;;15.55;8.48;;;;;;;;;;5129947;27;20034;-75
2022/01/07 09:10:44;;;;;;;20.05;8.75;;;;;;;;;;5124875;27;20295;-75
2022/01/07 09:13:11;;;;;;;14.98;8.20;;;;;;;;;;5112334;27;20015;-81
2022/01/07 09:15:37;;;;;;;17.98;8.32;;;;;;;;;;5125284;27;20497;-74
2022/01/07 09:18:09;;;;;;;16.35;7.82;;;;;;;;;;5129402;27;20030;-75
2022/01/07 09:20:39;;;;;;;14.98;6.97;;;;;;;;;;5132230;27;20030;-74
2022/01/07 09:23:06;;;;;;;15.13;6.72;;;;;;;;;;5128626;27;20400;-71
2022/01/07 09:25:33;;;;;;;14.75;7.13;;;;;;;;;;5127598;27;20031;-74
2022/01/07 09:27:59;;;;;;;14.23;7.43;;;;;;;;;;5128056;27;20489;-72
2022/01/07 09:30:26;;;;;;;13.55;6.97;;;;;;;;;;5129051;27;20022;-74
2022/01/07 09:32:52;;;;;;;15.25;7.60;;;;;;;;;;5132672;27;20019;-73
2022/01/07 09:35:18;;;;;;;19.92;6.95;;;;;;;;;;5139437;27;20042;-74
2022/01/07 09:37:45;;;;;;;14.23;6.85;;;;;;;;;;5129665;27;20019;-73
2022/01/07 09:40:12;;;;;;;15.27;7.03;;;;;;;;;;5128618;27;20397;-75
2022/01/07 09:42:40;;;;;;;12.88;5.90;;;;;;;;;;5127662;27;20011;-75
2022/01/07 09:45:06;;;;;;;15.48;6.28;;;;;;;;;;5129061;27;20027;-80
2022/01/07 09:47:33;;;;;;;19.85;7.65;;;;;;;;;;5131442;27;20532;-78
2022/01/07 09:49:59;;;;;;;36.47;12.50;;;;;;;;;;5092646;27;20019;-80
2022/01/07 09:52:26;;;;;;;27.38;10.73;;;;;;;;;;5128300;27;20023;-81
2022/01/07 09:54:52;;;;;;;27.95;11.98;;;;;;;;;;5127958;27;20031;-81
2022/01/07 09:57:19;;;;;;;19.08;7.80;;;;;;;;;;5110510;28;20052;-79
2022/01/07 09:59:53;;;;;;;12.07;5.68;;;;;;;;;;5131032;27;20050;-85
2022/01/07 10:02:19;;;;;;;12.77;6.38;;;;;;;;;;5128874;28;20030;-80
2022/01/07 10:04:45;;;;;;;12.50;5.85;;;;;;;;;;5128335;28;20485;-78
2022/01/07 10:07:12;;;;;;;15.43;6.22;;;;;;;;;;5128138;28;20015;-78
2022/01/07 10:09:42;;;;;;;11.35;5.75;;;;;;;;;;5128249;28;20450;-82
2022/01/07 10:12:14;;;;;;;15.57;6.85;;;;;;;;;;5129914;28;20037;-76
2022/01/07 10:14:40;;;;;;;16.13;6.13;;;;;;;;;;5127646;28;20029;-75
2022/01/07 10:17:07;;;;;;;16.45;6.40;;;;;;;;;;5108533;28;20041;-76
2022/01/07 10:19:33;;;;;;;15.23;6.40;;;;;;;;;;5124461;27;20020;-77
2022/01/07 10:22:17;;;;;;;12.85;6.07;;;;;;;;;;5129038;28;20034;-77
2022/01/07 10:24:54;;;;;;;18.10;6.80;;;;;;;;;;5125216;28;20477;-77
2022/01/07 10:27:21;;;;;;;16.90;7.10;;;;;;;;;;5128582;28;20053;-77
2022/01/07 10:29:48;;;;;;;15.80;7.18;;;;;;;;;;5130329;27;20477;-80
2022/01/07 10:32:21;;;;;;;15.70;7.43;;;;;;;;;;5129619;28;20023;-81
2022/01/07 10:35:20;;;;;;;20.33;8.20;;;;;;;;;;5126041;28;20019;-76
2022/01/07 10:37:51;;;;;;;19.23;8.27;;;;;;;;;;5027838;28;20570;-77
2022/01/07 10:40:21;;;;;;;15.45;7.35;;;;;;;;;;5027177;28;20042;-76
2022/01/07 10:42:48;;;;;;;16.17;6.53;;;;;;;;;;5028013;28;20038;-79
2022/01/07 10:45:14;;;;;;;13.30;5.80;;;;;;;;;;5028379;28;20025;-76
2022/01/07 10:47:40;;;;;;;16.20;7.25;;;;;;;;;;5015185;28;20034;-77
2022/01/07 10:50:13;;;;;;;16.33;7.63;;;;;;;;;;5028158;28;20036;-76
2022/01/07 10:52:40;;;;;;;16.42;7.72;;;;;;;;;;5030987;28;20068;-77
2022/01/07 10:55:14;;;;;;;14.80;6.00;;;;;;;;;;5026521;28;20037;-75
2022/01/07 10:57:41;;;;;;;15.40;6.55;;;;;;;;;;5030872;28;20026;-75
2022/01/07 11:00:15;;;;;;;16.20;6.93;;;;;;;;;;5021571;28;20033;-74
2022/01/07 11:02:41;;;;;;;14.20;6.57;;;;;;;;;;5027516;28;20040;-78
2022/01/07 11:05:08;;;;;;;17.60;7.32;;;;;;;;;;5025915;28;20403;-76
2022/01/07 11:07:35;;;;;;;17.85;7.07;;;;;;;;;;5030516;28;20037;-76
2022/01/07 11:10:05;;;;;;;19.15;8.20;;;;;;;;;;5030690;28;20025;-77
2022/01/07 11:12:33;;;;;;;15.98;7.63;;;;;;;;;;5047326;27;20049;-79
2022/01/07 11:15:00;;;;;;;19.55;9.13;;;;;;;;;;5132283;27;20035;-77
2022/01/07 11:17:27;;;;;;;22.25;10.27;;;;;;;;;;5134197;27;20023;-76
2022/01/07 11:19:57;;;;;;;22.40;8.73;;;;;;;;;;5131209;27;20396;-77
2022/01/07 11:22:24;;;;;;;20.42;8.05;;;;;;;;;;5130618;27;20397;-74
2022/01/07 11:25:05;;;;;;;22.20;9.00;;;;;;;;;;5131184;27;20018;-81
2022/01/07 11:27:31;;;;;;;16.52;8.57;;;;;;;;;;5131161;27;20511;-79
2022/01/07 11:30:04;;;;;;;22.85;10.50;;;;;;;;;;5133533;27;20023;-79
2022/01/07 11:32:36;;;;;;;22.80;10.13;;;;;;;;;;5133232;27;20015;-81
2022/01/07 11:35:18;;;;;;;21.98;10.07;;;;;;;;;;5132620;27;20080;-81
2022/01/07 11:37:45;;;;;;;21.75;9.50;;;;;;;;;;5130299;27;20039;-81
2022/01/07 11:40:27;;;;;;;21.98;9.75;;;;;;;;;;5130358;27;20477;-80
2022/01/07 11:42:53;;;;;;;31.70;13.07;;;;;;;;;;5130899;27;20026;-79
2022/01/07 11:45:28;;;;;;;45.33;18.25;;;;;;;;;;5131619;27;20028;-80
2022/01/07 11:47:56;;;;;;;29.63;12.43;;;;;;;;;;5133653;27;20043;-81
2022/01/07 11:50:23;;;;;;;25.15;10.60;;;;;;;;;;5132888;27;20062;-81
2022/01/07 11:53:02;;;;;;;22.00;11.10;;;;;;;;;;5130590;27;20023;-81
2022/01/07 11:55:36;;;;;;;19.92;9.68;;;;;;;;;;5131146;27;20027;-81
2022/01/07 11:58:04;;;;;;;57.85;21.60;;;;;;;;;;5131236;27;20025;-79
2022/01/07 12:00:49;;;;;;;32.42;14.75;;;;;;;;;;5112976;27;20405;-81
2022/01/07 12:03:32;;;;;;;24.40;11.80;;;;;;;;;;5114454;27;20123;-78
2022/01/07 12:05:59;;;;;;;22.10;10.05;;;;;;;;;;5132863;27;20027;-81
2022/01/07 12:08:41;;;;;;;23.88;9.50;;;;;;;;;;5133065;27;20019;-81
2022/01/07 12:11:08;;;;;;;19.52;9.30;;;;;;;;;;5131139;27;20386;-81
2022/01/07 12:13:38;;;;;;;21.80;10.32;;;;;;;;;;5114122;27;20018;-81
2022/01/07 12:16:06;;;;;;;25.20;10.23;;;;;;;;;;5130710;27;20045;-80
2022/01/07 12:18:33;;;;;;;32.45;11.98;;;;;;;;;;5130968;27;20481;-73
2022/01/07 12:20:59;;;;;;;26.42;10.65;;;;;;;;;;5132129;27;20034;-73
2022/01/07 12:23:26;;;;;;;20.17;9.15;;;;;;;;;;5132418;27;20023;-73
2022/01/07 12:25:53;;;;;;;18.65;9.38;;;;;;;;;;5130581;27;20482;-73
2022/01/07 12:28:19;;;;;;;21.67;8.77;;;;;;;;;;5130299;27;20023;-78
2022/01/07 12:30:47;;;;;;;24.65;8.50;;;;;;;;;;5122718;27;20490;-73
2022/01/07 12:33:13;;;;;;;29.33;14.55;;;;;;;;;;5130473;27;20026;-79
2022/01/07 12:35:40;;;;;;;40.45;14.65;;;;;;;;;;5128348;27;20031;-75
2022/01/07 12:38:14;;;;;;;39.55;15.15;;;;;;;;;;5129592;27;20366;-74
2022/01/07 12:40:41;;;;;;;31.33;14.23;;;;;;;;;;5130176;27;20019;-79
2022/01/07 12:43:07;;;;;;;25.90;11.98;;;;;;;;;;5129827;27;20031;-80
2022/01/07 12:45:34;;;;;;;23.92;10.63;;;;;;;;;;5129973;27;20041;-83
2022/01/07 12:48:00;;;;;;;20.52;9.10;;;;;;;;;;5110529;27;20039;-75
2022/01/07 12:50:29;;;;;;;20.90;9.88;;;;;;;;;;5126960;27;20027;-76
2022/01/07 12:52:55;;;;;;;25.35;10.23;;;;;;;;;;5094121;28;20015;-74
2022/01/07 12:55:23;;;;;;;21.02;9.48;;;;;;;;;;5113756;27;20035;-76
2022/01/07 12:57:50;;;;;;;21.60;9.02;;;;;;;;;;5113332;27;20446;-77
2022/01/07 13:00:18;;;;;;;29.80;10.63;;;;;;;;;;5106736;27;20038;-79
2022/01/07 13:02:46;;;;;;;26.75;9.73;;;;;;;;;;5115884;27;20077;-80
2022/01/07 13:05:14;;;;;;;37.80;15.02;;;;;;;;;;5121078;27;20031;-80
2022/01/07 13:07:43;;;;;;;29.08;12.38;;;;;;;;;;5117359;27;20092;-77
2022/01/07 13:10:10;;;;;;;16.00;7.53;;;;;;;;;;5113580;27;20020;-75
2022/01/07 13:12:39;;;;;;;23.73;8.13;;;;;;;;;;5112365;27;20019;-76
2022/01/07 13:15:06;;;;;;;20.33;7.22;;;;;;;;;;5125967;27;20040;-77
2022/01/07 13:17:33;;;;;;;20.38;6.45;;;;;;;;;;5115739;27;20023;-77
2022/01/07 13:19:59;;;;;;;15.82;5.72;;;;;;;;;;5112899;27;20023;-76
2022/01/07 13:22:28;;;;;;;17.48;6.00;;;;;;;;;;5113967;27;20026;-74
2022/01/07 13:24:54;;;;;;;17.17;5.35;;;;;;;;;;5113248;27;20041;-76
2022/01/07 13:27:21;;;;;;;13.65;5.10;;;;;;;;;;5082945;27;20024;-71
2022/01/07 13:29:48;;;;;;;14.05;4.97;;;;;;;;;;5115095;27;20470;-72
2022/01/07 13:32:20;;;;;;;13.57;3.97;;;;;;;;;;5114582;27;20033;-72
2022/01/07 13:34:47;;;;;;;13.02;4.97;;;;;;;;;;5113516;27;20016;-72
2022/01/07 13:37:15;;;;;;;13.13;4.85;;;;;;;;;;5113544;27;20175;-73
2022/01/07 13:39:43;;;;;;;13.57;4.20;;;;;;;;;;5112863;27;20027;-72
2022/01/07 13:42:09;;;;;;;15.02;3.88;;;;;;;;;;5110042;28;20023;-72
2022/01/07 13:44:55;;;;;;;11.60;3.85;;;;;;;;;;5116523;27;20500;-72
2022/01/07 13:47:21;;;;;;;10.55;3.78;;;;;;;;;;5115959;27;20048;-72
2022/01/07 13:49:48;;;;;;;12.88;3.58;;;;;;;;;;5108257;28;20030;-71
2022/01/07 13:52:25;;;;;;;15.63;3.25;;;;;;;;;;5108600;28;20436;-72
2022/01/07 13:54:52;;;;;;;8.02;3.00;;;;;;;;;;5108194;28;20030;-72
2022/01/07 13:57:18;;;;;;;11.68;3.00;;;;;;;;;;5108784;28;20513;-72
2022/01/07 13:59:52;;;;;;;13.55;2.67;;;;;;;;;;5111716;28;20397;-72
2022/01/07 14:02:32;;;;;;;7.95;2.55;;;;;;;;;;5109361;28;20028;-72
2022/01/07 14:05:12;;;;;;;13.38;3.20;;;;;;;;;;5108437;28;20028;-72
2022/01/07 14:07:40;;;;;;;11.48;3.20;;;;;;;;;;5108383;28;20012;-72
2022/01/07 14:10:12;;;;;;;7.53;2.60;;;;;;;;;;5109562;28;20047;-73
2022/01/07 14:12:54;;;;;;;7.75;2.75;;;;;;;;;;5108385;28;20016;-72
2022/01/07 14:15:26;;;;;;;10.60;3.67;;;;;;;;;;5093118;28;20032;-73
2022/01/07 14:18:03;;;;;;;10.90;3.63;;;;;;;;;;5109349;28;20020;-72
2022/01/07 14:20:38;;;;;;;18.38;4.10;;;;;;;;;;5110765;28;20030;-72
2022/01/07 14:23:04;;;;;;;9.90;2.50;;;;;;;;;;5108355;28;20022;-73
2022/01/07 14:25:31;;;;;;;8.10;2.70;;;;;;;;;;5109322;28;20031;-72
2022/01/07 14:27:57;;;;;;;8.25;2.90;;;;;;;;;;5092704;28;20024;-72
2022/01/07 14:30:24;;;;;;;10.40;3.17;;;;;;;;;;5111717;28;20024;-72
2022/01/07 14:32:50;;;;;;;9.63;2.90;;;;;;;;;;5113178;28;20084;-72
2022/01/07 14:35:17;;;;;;;9.45;2.70;;;;;;;;;;5094715;28;20497;-71
2022/01/07 14:37:43;;;;;;;11.93;4.20;;;;;;;;;;5111917;28;20424;-73
2022/01/07 14:40:10;;;;;;;11.95;3.80;;;;;;;;;;5112174;27;20031;-72
2022/01/07 14:42:36;;;;;;;11.15;3.55;;;;;;;;;;5111719;28;20015;-72